createdAt,value
2019-01-20T00:02:43.392Z,95565.67
2019-01-20T00:05:33.318Z,95570.67
2019-01-20T00:08:23.143Z,95567.59
2019-01-20T00:11:16.678Z,95570.11
2019-01-20T00:16:56.436Z,95565.42
2019-01-20T00:19:46.213Z,95551.48
2019-01-20T00:22:28.882Z,95557.34
2019-01-20T00:25:18.631Z,95545.03
2019-01-20T00:28:00.792Z,95563.86
2019-01-20T00:30:50.904Z,95562.20
2019-01-20T00:33:33.220Z,95546.69
2019-01-20T00:36:23.006Z,95558.61
2019-01-20T00:39:06.988Z,95561.28
2019-01-20T00:41:56.715Z,95558.61
2019-01-20T00:44:38.837Z,95544.66
2019-01-20T00:47:28.757Z,95566.38
2019-01-20T00:50:11.584Z,95565.51
2019-01-20T00:53:01.416Z,95564.01
2019-01-20T00:55:44.054Z,95557.97
2019-01-20T00:58:33.819Z,95557.42
2019-01-20T01:01:23.637Z,95562.38
2019-01-20T01:04:13.410Z,95564.55
2019-01-20T01:07:03.370Z,95567.30
2019-01-20T01:10:05.906Z,95565.18
2019-01-20T01:12:48.380Z,95565.34
2019-01-20T01:15:38.103Z,95553.44
2019-01-20T01:18:21.380Z,95552.97
2019-01-20T01:21:11.471Z,95554.30
2019-01-20T01:23:54.156Z,95556.64
2019-01-20T01:26:43.915Z,95560.97
2019-01-20T01:29:26.079Z,95558.19
2019-01-20T01:32:15.855Z,95555.01
2019-01-20T01:34:58.456Z,95560.42
2019-01-20T01:37:48.198Z,95559.06
2019-01-20T01:40:30.815Z,95570.59
2019-01-20T01:43:20.627Z,95565.80
2019-01-20T01:46:03.311Z,95567.39
2019-01-20T01:48:53.082Z,95566.84
2019-01-20T01:51:35.545Z,95563.39
2019-01-20T01:54:25.309Z,95567.00
2019-01-20T01:57:07.691Z,95569.25
2019-01-20T01:59:57.526Z,95568.26
2019-01-20T02:02:47.492Z,95569.26
2019-01-20T02:05:29.745Z,95569.04
2019-01-20T02:08:19.573Z,95569.42
2019-01-20T02:11:09.450Z,95537.27
2019-01-20T02:13:59.257Z,95562.77
2019-01-20T02:16:49.045Z,95564.09
2019-01-20T02:19:38.841Z,95569.07
2019-01-20T02:22:30.075Z,95567.33
2019-01-20T02:30:42.901Z,95575.90
2019-01-20T02:33:32.704Z,95574.95
2019-01-20T02:36:22.688Z,95558.74
2019-01-20T02:39:12.666Z,95573.11
2019-01-20T02:42:02.481Z,95573.17
2019-01-20T02:44:52.253Z,95573.15
2019-01-20T02:47:42.007Z,95567.92
2019-01-20T02:50:25.383Z,95564.52
2019-01-20T02:53:15.442Z,95570.32
2019-01-20T02:55:57.413Z,95572.25
2019-01-20T02:58:47.181Z,95575.34
2019-01-20T03:01:29.329Z,95564.78
2019-01-20T03:04:19.122Z,95574.31
2019-01-20T03:07:05.385Z,95551.19
2019-01-20T03:09:55.159Z,95573.11
2019-01-20T03:12:37.487Z,95550.50
2019-01-20T03:15:27.217Z,95551.45
2019-01-20T03:18:16.505Z,95550.25
2019-01-20T03:21:06.330Z,95569.88
2019-01-20T03:23:48.521Z,95568.53
2019-01-20T03:26:38.303Z,95564.98
2019-01-20T03:29:21.021Z,95542.70
2019-01-20T03:32:10.777Z,95558.56
2019-01-20T03:34:53.027Z,95567.41
2019-01-20T03:37:42.801Z,95562.18
2019-01-20T03:40:25.622Z,95562.06
2019-01-20T03:43:15.394Z,95565.34
2019-01-20T03:45:57.343Z,95552.87
2019-01-20T03:48:47.098Z,95561.42
2019-01-20T03:51:30.015Z,95559.57
2019-01-20T03:54:19.877Z,95563.19
2019-01-20T03:57:04.527Z,95560.98
2019-01-20T03:59:54.254Z,95559.13
2019-01-20T04:02:38.199Z,95563.71
2019-01-20T04:05:27.991Z,95556.36
2019-01-20T04:08:11.362Z,95556.97
2019-01-20T04:11:01.119Z,95557.98
2019-01-20T04:16:41.947Z,95526.77
2019-01-20T04:19:31.814Z,95530.69
2019-01-20T04:22:21.582Z,95544.39
2019-01-20T04:25:12.617Z,95541.63
2019-01-20T04:28:02.559Z,95555.80
2019-01-20T04:30:52.304Z,95549.60
2019-01-20T04:33:34.427Z,95550.42
2019-01-20T04:36:23.968Z,95545.10
2019-01-20T04:45:00.260Z,95536.08
2019-01-20T04:47:50.175Z,95537.16
2019-01-20T04:50:39.992Z,95542.73
2019-01-20T04:56:27.332Z,95519.97
2019-01-20T04:59:17.058Z,95540.56
2019-01-20T05:02:03.110Z,95532.67
2019-01-20T05:04:53.657Z,95541.41
2019-01-20T05:07:36.052Z,95537.16
2019-01-20T05:10:25.794Z,95538.61
2019-01-20T05:16:05.352Z,95540.56
2019-01-20T05:18:55.202Z,95545.78
2019-01-20T05:21:45.066Z,95552.17
2019-01-20T05:24:34.858Z,95553.21
2019-01-20T05:27:24.762Z,95552.16
2019-01-20T05:30:16.836Z,95555.97
2019-01-20T05:35:49.055Z,95536.84
2019-01-20T05:38:38.824Z,95548.16
2019-01-20T05:41:23.196Z,95563.13
2019-01-20T05:44:12.950Z,95542.20
2019-01-20T05:46:57.234Z,95564.68
2019-01-20T05:49:46.998Z,95549.33
2019-01-20T05:52:30.774Z,95568.43
2019-01-20T05:55:20.516Z,95572.63
2019-01-20T05:58:03.034Z,95574.10
2019-01-20T06:06:59.385Z,95573.52
2019-01-20T06:09:49.162Z,95577.34
2019-01-20T06:12:31.788Z,95572.45
2019-01-20T06:21:30.960Z,95586.73
2019-01-20T06:24:18.052Z,95587.72
2019-01-20T06:27:00.207Z,95585.19
2019-01-20T06:32:54.153Z,95589.27
2019-01-20T06:35:37.679Z,95591.88
2019-01-20T06:47:45.947Z,95585.14
2019-01-20T06:59:10.536Z,95600.52
2019-01-20T07:02:00.279Z,95600.64
2019-01-20T07:04:50.077Z,95569.33
2019-01-20T07:07:53.455Z,95590.11
2019-01-20T07:10:43.051Z,95585.49
2019-01-20T07:13:25.500Z,95605.97
2019-01-20T07:16:15.327Z,95607.83
2019-01-20T07:19:05.229Z,95607.20
2019-01-20T07:21:55.039Z,95589.80
2019-01-20T07:24:44.757Z,95612.14
2019-01-20T07:27:27.525Z,95616.88
2019-01-20T07:33:39.531Z,95623.45
2019-01-20T07:36:23.989Z,95627.95
2019-01-20T07:39:10.531Z,95620.13
2019-01-20T07:41:54.585Z,95602.59
2019-01-20T07:44:36.607Z,95630.94
2019-01-20T07:47:26.837Z,95639.16
2019-01-20T07:53:43.389Z,95635.29
2019-01-20T07:56:25.390Z,95641.09
2019-01-20T07:59:34.207Z,95615.21
2019-01-20T08:02:16.165Z,95641.28
2019-01-20T08:05:06.465Z,95647.48
2019-01-20T08:07:48.904Z,95649.94
2019-01-20T08:10:38.693Z,95619.64
2019-01-20T08:13:24.372Z,95652.63
2019-01-20T08:16:13.292Z,95651.45
2019-01-20T08:19:03.128Z,95655.13
2019-01-20T08:21:52.939Z,95626.25
2019-01-20T08:24:42.797Z,95661.17
2019-01-20T08:27:45.012Z,95659.88
2019-01-20T08:30:28.629Z,95672.12
2019-01-20T08:33:18.379Z,95668.33
2019-01-20T08:36:00.464Z,95677.52
2019-01-20T08:38:50.187Z,95671.23
2019-01-20T08:41:32.427Z,95673.78
2019-01-20T08:44:27.301Z,95674.16
2019-01-20T08:47:32.393Z,95676.02
2019-01-20T08:50:22.280Z,95669.81
2019-01-20T08:53:11.235Z,95676.36
2019-01-20T08:56:01.008Z,95678.41
2019-01-20T08:58:57.536Z,95684.33
2019-01-20T09:01:47.298Z,95688.80
2019-01-20T09:04:30.254Z,95692.79
2019-01-20T09:13:02.748Z,95702.58
2019-01-20T09:15:45.381Z,95704.77
2019-01-20T09:21:27.062Z,95706.76
2019-01-20T09:24:16.872Z,95702.39
2019-01-20T09:27:06.649Z,95682.09
2019-01-20T09:29:53.236Z,95693.40
2019-01-20T09:32:35.241Z,95708.91
2019-01-20T09:35:25.070Z,95717.29
2019-01-20T09:38:07.687Z,95720.70
2019-01-20T09:40:57.464Z,95715.48
2019-01-20T09:43:47.322Z,95720.84
2019-01-20T09:46:35.042Z,95718.37
2019-01-20T09:49:19.015Z,95719.64
2019-01-20T09:52:08.780Z,95699.55
2019-01-20T09:54:51.283Z,95720.61
2019-01-20T09:57:41.099Z,95722.55
2019-01-20T10:00:24.084Z,95697.47
2019-01-20T10:03:16.326Z,95699.27
2019-01-20T10:05:57.926Z,95717.50
2019-01-20T10:08:47.703Z,95710.72
2019-01-20T10:11:30.294Z,95717.74
2019-01-20T10:14:20.054Z,95715.47
2019-01-20T10:17:03.164Z,95719.19
2019-01-20T10:19:53.008Z,95715.50
2019-01-20T10:22:36.948Z,95713.53
2019-01-20T10:25:26.720Z,95702.02
2019-01-20T10:28:20.317Z,95718.66
2019-01-20T10:31:05.988Z,95699.81
2019-01-20T10:33:55.950Z,95717.41
2019-01-20T10:36:59.498Z,95718.80
2019-01-20T10:39:42.000Z,95726.34
2019-01-20T10:42:31.790Z,95731.13
2019-01-20T10:45:13.942Z,95732.13
2019-01-20T10:48:03.811Z,95725.33
2019-01-20T10:50:50.584Z,95726.72
2019-01-20T10:53:40.363Z,95720.78
2019-01-20T10:56:23.173Z,95727.45
2019-01-20T10:59:13.764Z,95718.57
2019-01-20T11:04:57.545Z,95715.44
2019-01-20T11:07:45.007Z,95696.82
2019-01-20T11:10:35.211Z,95715.34
2019-01-20T11:13:25.070Z,95709.14
2019-01-20T11:16:14.988Z,95709.82
2019-01-20T11:19:05.279Z,95719.60
2019-01-20T11:21:55.009Z,95698.89
2019-01-20T11:27:31.634Z,95718.09
2019-01-20T11:30:21.470Z,95717.38
2019-01-20T11:33:11.318Z,95693.61
2019-01-20T11:35:53.524Z,95705.33
2019-01-20T11:38:43.445Z,95692.69
2019-01-20T11:41:33.288Z,95706.58
2019-01-20T11:44:23.111Z,95694.16
2019-01-20T11:47:12.911Z,95678.64
2019-01-20T11:49:55.671Z,95696.36
2019-01-20T11:52:45.439Z,95690.94
2019-01-20T11:55:29.638Z,95694.51
2019-01-20T11:58:19.385Z,95672.55
2019-01-20T12:01:01.894Z,95687.77
2019-01-20T12:03:51.651Z,95690.15
2019-01-20T12:06:33.993Z,95693.06
2019-01-20T12:09:23.793Z,95679.77
2019-01-20T12:12:13.536Z,95688.82
2019-01-20T12:14:55.845Z,95685.09
2019-01-20T12:18:06.187Z,95660.09
2019-01-20T12:24:13.445Z,95667.08
2019-01-20T12:27:03.225Z,95680.95
2019-01-20T12:29:51.815Z,95677.41
2019-01-20T12:32:37.205Z,95677.13
2019-01-20T12:35:19.509Z,95672.23
2019-01-20T12:38:09.286Z,95675.91
2019-01-20T12:40:52.210Z,95652.41
2019-01-20T12:43:42.008Z,95667.50
2019-01-20T12:46:24.778Z,95669.69
2019-01-20T12:49:14.589Z,95671.33
2019-01-20T12:51:56.597Z,95671.23
2019-01-20T12:55:05.457Z,95669.70
2019-01-20T12:57:51.985Z,95665.09
2019-01-20T13:00:41.735Z,95666.44
2019-01-20T13:03:23.920Z,95664.48
2019-01-20T13:06:13.708Z,95656.27
2019-01-20T13:08:56.726Z,95656.75
2019-01-20T13:11:46.517Z,95664.28
2019-01-20T13:14:29.224Z,95642.39
2019-01-20T13:17:18.998Z,95665.38
2019-01-20T13:20:01.359Z,95659.88
2019-01-20T13:22:51.499Z,95658.87
2019-01-20T13:25:33.903Z,95656.19
2019-01-20T13:28:23.643Z,95654.82
2019-01-20T13:31:05.574Z,95656.61
2019-01-20T13:33:55.355Z,95655.27
2019-01-20T13:36:37.861Z,95660.25
2019-01-20T13:42:33.640Z,95659.90
2019-01-20T13:45:15.690Z,95635.50
2019-01-20T13:51:19.658Z,95654.41
2019-01-20T13:54:09.955Z,95655.75
2019-01-20T13:59:42.379Z,95653.89
2019-01-20T14:02:33.322Z,95650.81
2019-01-20T14:05:15.259Z,95661.02
2019-01-20T14:08:05.235Z,95658.66
2019-01-20T14:13:23.138Z,95663.70
2019-01-20T14:16:12.994Z,95668.09
2019-01-20T14:19:03.034Z,95663.60
2019-01-20T14:21:46.273Z,95666.25
2019-01-20T14:24:36.354Z,95652.35
2019-01-20T14:27:26.950Z,95659.08
2019-01-20T14:30:11.224Z,95666.77
2019-01-20T14:33:20.175Z,95667.72
2019-01-20T14:36:23.260Z,95646.83
2019-01-20T14:39:09.020Z,95666.64
2019-01-20T14:41:58.822Z,95661.80
2019-01-20T14:44:41.513Z,95671.13
2019-01-20T14:47:23.805Z,95671.61
2019-01-20T14:50:34.688Z,95672.91
2019-01-20T14:53:24.482Z,95675.28
2019-01-20T14:56:14.302Z,95683.06
2019-01-20T14:58:57.282Z,95682.20
2019-01-20T15:01:47.130Z,95678.50
2019-01-20T15:04:36.962Z,95681.81
2019-01-20T15:07:26.827Z,95683.45
2019-01-20T15:10:16.636Z,95682.97
2019-01-20T15:13:06.617Z,95666.77
2019-01-20T15:15:56.462Z,95665.38
2019-01-20T15:18:46.281Z,95683.95
2019-01-20T15:21:49.137Z,95689.73
2019-01-20T15:24:32.721Z,95676.42
2019-01-20T15:27:22.507Z,95685.48
2019-01-20T15:30:06.633Z,95689.79
2019-01-20T15:32:56.741Z,95695.92
2019-01-20T15:35:40.869Z,95693.02
2019-01-20T15:41:22.449Z,95697.22
2019-01-20T15:44:12.373Z,95694.69
2019-01-20T15:47:02.217Z,95695.59
2019-01-20T15:52:41.225Z,95705.38
2019-01-20T15:55:31.986Z,95707.37
2019-01-20T15:58:14.181Z,95703.55
2019-01-20T16:01:03.975Z,95706.67
2019-01-20T16:03:46.360Z,95704.83
2019-01-20T16:06:36.125Z,95690.36
2019-01-20T16:09:18.098Z,95709.30
2019-01-20T16:12:07.863Z,95710.97
2019-01-20T16:14:57.629Z,95711.47
2019-01-20T16:17:39.755Z,95714.19
2019-01-20T16:20:30.931Z,95698.92
2019-01-20T16:23:20.767Z,95715.47
2019-01-20T16:26:10.629Z,95699.66
2019-01-20T16:29:00.412Z,95718.33
2019-01-20T16:31:31.097Z,95724.47
2019-01-20T16:34:20.961Z,95728.38
2019-01-20T16:37:10.934Z,95728.47
2019-01-20T16:40:00.738Z,95733.03
2019-01-20T16:42:50.742Z,95738.05
2019-01-20T16:46:00.754Z,95737.92
2019-01-20T16:48:50.598Z,95718.31
2019-01-20T16:51:40.665Z,95736.68
2019-01-20T16:54:30.414Z,95738.69
2019-01-20T16:57:12.904Z,95745.46
2019-01-20T17:00:15.320Z,95744.55
2019-01-20T17:02:58.110Z,95753.27
2019-01-20T17:05:47.903Z,95746.36
2019-01-20T17:08:30.889Z,95748.81
2019-01-20T17:11:20.677Z,95749.25
2019-01-20T17:14:03.230Z,95725.47
2019-01-20T17:16:52.970Z,95738.11
2019-01-20T17:19:36.899Z,95751.30
2019-01-20T17:22:26.662Z,95727.05
2019-01-20T17:25:09.412Z,95755.55
2019-01-20T17:27:59.175Z,95754.36
2019-01-20T17:30:41.920Z,95752.48
2019-01-20T17:33:31.703Z,95753.09
2019-01-20T17:36:13.802Z,95757.89
2019-01-20T17:39:03.673Z,95760.02
2019-01-20T17:41:53.419Z,95754.70
2019-01-20T17:44:36.094Z,95750.38
2019-01-20T17:47:25.940Z,95745.22
2019-01-20T17:50:18.926Z,95761.04
2019-01-20T17:53:09.897Z,95741.42
2019-01-20T17:55:52.582Z,95764.17
2019-01-20T17:58:42.481Z,95760.80
2019-01-20T18:04:09.334Z,95770.61
2019-01-20T18:06:59.117Z,95774.26
2019-01-20T18:09:45.032Z,95756.03
2019-01-20T18:12:34.757Z,95766.09
2019-01-20T18:15:19.487Z,95782.49
2019-01-20T18:18:09.283Z,95784.23
2019-01-20T18:20:51.976Z,95790.06
2019-01-20T18:23:42.103Z,95794.28
2019-01-20T18:26:25.675Z,95797.20
2019-01-20T18:29:15.462Z,95798.78
2019-01-20T18:31:57.705Z,95803.58
2019-01-20T18:34:47.527Z,95808.59
2019-01-20T18:37:18.274Z,95803.67
2019-01-20T18:40:11.449Z,95809.69
2019-01-20T18:42:55.290Z,95792.69
2019-01-20T18:45:29.406Z,95812.38
2019-01-20T18:48:20.004Z,95815.91
2019-01-20T18:51:06.683Z,95803.11
2019-01-20T18:53:48.897Z,95797.31
2019-01-20T18:56:39.051Z,95823.59
2019-01-20T18:59:28.899Z,95822.69
2019-01-20T19:02:18.741Z,95832.92
2019-01-20T19:08:54.115Z,95835.98
2019-01-20T19:11:36.710Z,95836.53
2019-01-20T19:14:26.501Z,95835.19
2019-01-20T19:17:09.308Z,95839.53
2019-01-20T19:19:59.099Z,95837.41
2019-01-20T19:22:41.253Z,95840.53
2019-01-20T19:25:31.132Z,95845.49
2019-01-20T19:28:13.495Z,95850.69
2019-01-20T19:31:03.377Z,95829.94
2019-01-20T19:33:53.248Z,95844.44
2019-01-20T19:36:43.068Z,95842.89
2019-01-20T19:42:56.497Z,95850.97
2019-01-20T19:45:39.673Z,95833.33
2019-01-20T19:51:38.283Z,95857.27
2019-01-20T19:54:20.643Z,95855.92
2019-01-20T19:57:10.523Z,95849.70
2019-01-20T20:00:00.353Z,95856.84
2019-01-20T20:02:50.247Z,95842.05
2019-01-20T20:05:40.053Z,95861.92
2019-01-20T20:08:29.851Z,95858.55
2019-01-20T20:17:01.779Z,95875.82
2019-01-20T20:19:51.629Z,95879.00
2019-01-20T20:22:41.399Z,95880.95
2019-01-20T20:25:31.157Z,95883.55
2019-01-20T20:28:20.941Z,95862.97
2019-01-20T20:31:03.479Z,95867.27
2019-01-20T20:33:53.257Z,95883.47
2019-01-20T20:36:35.799Z,95896.99
2019-01-20T20:39:17.798Z,95895.33
2019-01-20T20:45:14.057Z,95879.61
2019-01-20T20:48:22.936Z,95899.41
2019-01-20T20:51:12.753Z,95902.72
2019-01-20T20:53:55.081Z,95907.17
2019-01-20T20:56:44.910Z,95908.30
2019-01-20T20:59:34.751Z,95913.41
2019-01-20T21:02:37.490Z,95907.44
2019-01-20T21:05:19.909Z,95909.73
2019-01-20T21:08:09.666Z,95906.44
2019-01-20T21:10:52.087Z,95908.53
2019-01-20T21:13:42.133Z,95915.92
2019-01-20T21:16:37.802Z,95910.74
2019-01-20T21:19:16.488Z,95899.52
2019-01-20T21:22:19.382Z,95915.38
2019-01-20T21:25:02.192Z,95917.59
2019-01-20T21:27:51.964Z,95918.60
2019-01-20T21:30:34.897Z,95920.35
2019-01-20T21:33:24.665Z,95913.45
2019-01-20T21:36:08.088Z,95918.64
2019-01-20T21:38:38.816Z,95923.66
2019-01-20T21:41:28.562Z,95923.57
2019-01-20T21:44:10.756Z,95932.63
2019-01-20T21:47:00.600Z,95930.25
2019-01-20T21:49:50.496Z,95931.51
2019-01-20T21:52:40.249Z,95935.44
2019-01-20T21:55:29.992Z,95940.48
2019-01-20T21:58:19.775Z,95938.98
2019-01-20T22:01:02.724Z,95947.33
2019-01-20T22:03:52.470Z,95946.53
2019-01-20T22:06:42.529Z,95926.16
2019-01-20T22:09:25.524Z,95949.42
2019-01-20T22:12:34.452Z,95957.36
2019-01-20T22:15:24.571Z,95939.14
2019-01-20T22:18:14.318Z,95933.84
2019-01-20T22:21:04.126Z,95938.97
2019-01-20T22:23:54.216Z,95969.22
2019-01-20T22:26:44.080Z,95963.48
2019-01-20T22:29:33.848Z,95973.64
2019-01-20T22:32:23.632Z,95969.42
2019-01-20T22:35:13.538Z,95963.23
2019-01-20T22:38:03.459Z,95972.06
2019-01-20T22:40:53.214Z,95975.36
2019-01-20T22:43:42.976Z,95966.75
2019-01-20T22:46:32.735Z,95948.24
2019-01-20T22:49:15.172Z,95973.70
2019-01-20T22:52:04.994Z,95976.36
2019-01-20T22:54:47.110Z,95970.80
2019-01-20T22:57:36.851Z,95973.73
2019-01-20T23:00:24.002Z,95977.73
2019-01-20T23:03:13.803Z,95978.30
2019-01-20T23:05:56.362Z,95972.86
2019-01-20T23:08:46.126Z,95978.59
2019-01-20T23:11:28.392Z,95982.30
2019-01-20T23:14:18.142Z,95986.23
2019-01-20T23:17:07.461Z,95985.20
2019-01-20T23:19:52.533Z,95984.58
2019-01-20T23:22:34.609Z,95978.36
2019-01-20T23:25:24.405Z,95974.54
2019-01-20T23:28:07.512Z,95970.56
2019-01-20T23:30:57.271Z,95961.19
2019-01-20T23:33:40.130Z,95979.58
2019-01-20T23:36:29.882Z,95982.47
2019-01-20T23:39:12.008Z,95984.91
2019-01-20T23:42:01.743Z,95991.37
2019-01-20T23:44:44.880Z,95992.37
2019-01-20T23:47:34.681Z,95986.36
2019-01-20T23:50:17.184Z,95989.63
2019-01-20T23:53:07.274Z,95989.92
2019-01-20T23:55:49.523Z,95989.75
2019-01-20T23:58:39.301Z,95997.55
